sensor_id;sensor_type;location;lat;lon;timestamp;P1;durP1;ratioP1;P2;durP2;ratioP2
66402;SDS011;53212;52.112;5.144;2023-08-06T00:00:20;4.80;;;4.40;;
66402;SDS011;53212;52.112;5.144;2023-08-06T00:02:46;5.60;;;4.90;;
66402;SDS011;53212;52.112;5.144;2023-08-06T00:05:12;4.90;;;4.40;;
66402;SDS011;53212;52.112;5.144;2023-08-06T00:07:37;5.20;;;4.80;;
66402;SDS011;53212;52.112;5.144;2023-08-06T00:10:03;5.70;;;4.80;;
66402;SDS011;53212;52.112;5.144;2023-08-06T00:12:29;4.90;;;4.50;;
66402;SDS011;53212;52.112;5.144;2023-08-06T00:14:54;6.60;;;4.90;;
66402;SDS011;53212;52.112;5.144;2023-08-06T00:17:20;6.70;;;5.40;;
66402;SDS011;53212;52.112;5.144;2023-08-06T00:19:45;5.40;;;4.90;;
66402;SDS011;53212;52.112;5.144;2023-08-06T00:22:11;5.50;;;4.80;;
66402;SDS011;53212;52.112;5.144;2023-08-06T00:24:36;5.00;;;4.60;;
66402;SDS011;53212;52.112;5.144;2023-08-06T00:27:02;5.50;;;4.30;;
66402;SDS011;53212;52.112;5.144;2023-08-06T00:29:28;5.40;;;4.90;;
66402;SDS011;53212;52.112;5.144;2023-08-06T00:31:54;5.10;;;4.70;;
66402;SDS011;53212;52.112;5.144;2023-08-06T00:34:19;6.00;;;4.80;;
66402;SDS011;53212;52.112;5.144;2023-08-06T00:36:45;5.40;;;4.90;;
66402;SDS011;53212;52.112;5.144;2023-08-06T00:39:10;4.70;;;4.30;;
66402;SDS011;53212;52.112;5.144;2023-08-06T00:41:36;5.60;;;5.10;;
66402;SDS011;53212;52.112;5.144;2023-08-06T00:44:01;6.10;;;4.80;;
66402;SDS011;53212;52.112;5.144;2023-08-06T00:46:27;5.60;;;4.70;;
66402;SDS011;53212;52.112;5.144;2023-08-06T00:48:52;5.30;;;4.70;;
66402;SDS011;53212;52.112;5.144;2023-08-06T00:51:18;4.80;;;4.50;;
66402;SDS011;53212;52.112;5.144;2023-08-06T00:53:44;5.00;;;4.50;;
66402;SDS011;53212;52.112;5.144;2023-08-06T00:56:10;7.10;;;4.80;;
66402;SDS011;53212;52.112;5.144;2023-08-06T00:58:36;5.20;;;4.70;;
66402;SDS011;53212;52.112;5.144;2023-08-06T01:01:02;5.50;;;5.00;;
66402;SDS011;53212;52.112;5.144;2023-08-06T01:03:28;5.10;;;4.60;;
66402;SDS011;53212;52.112;5.144;2023-08-06T01:05:53;6.20;;;5.10;;
66402;SDS011;53212;52.112;5.144;2023-08-06T01:11:18;5.30;;;4.80;;
66402;SDS011;53212;52.112;5.144;2023-08-06T01:13:54;5.70;;;5.10;;
66402;SDS011;53212;52.112;5.144;2023-08-06T01:16:38;5.60;;;5.10;;
66402;SDS011;53212;52.112;5.144;2023-08-06T01:19:15;6.60;;;4.90;;
66402;SDS011;53212;52.112;5.144;2023-08-06T01:21:41;5.40;;;4.80;;
66402;SDS011;53212;52.112;5.144;2023-08-06T01:24:07;5.30;;;4.80;;
66402;SDS011;53212;52.112;5.144;2023-08-06T01:26:54;5.90;;;5.30;;
66402;SDS011;53212;52.112;5.144;2023-08-06T01:29:31;4.80;;;4.40;;
66402;SDS011;53212;52.112;5.144;2023-08-06T01:32:02;6.10;;;5.30;;
66402;SDS011;53212;52.112;5.144;2023-08-06T01:34:31;4.90;;;4.50;;
66402;SDS011;53212;52.112;5.144;2023-08-06T01:36:59;5.00;;;4.70;;
66402;SDS011;53212;52.112;5.144;2023-08-06T01:39:25;5.10;;;4.70;;
66402;SDS011;53212;52.112;5.144;2023-08-06T01:41:51;5.40;;;4.90;;
66402;SDS011;53212;52.112;5.144;2023-08-06T01:44:16;6.10;;;4.80;;
66402;SDS011;53212;52.112;5.144;2023-08-06T01:46:42;5.10;;;4.50;;
66402;SDS011;53212;52.112;5.144;2023-08-06T01:49:07;5.20;;;4.70;;
66402;SDS011;53212;52.112;5.144;2023-08-06T01:51:33;4.80;;;4.40;;
66402;SDS011;53212;52.112;5.144;2023-08-06T01:53:59;6.20;;;5.10;;
66402;SDS011;53212;52.112;5.144;2023-08-06T01:56:24;5.90;;;5.00;;
66402;SDS011;53212;52.112;5.144;2023-08-06T01:58:50;7.00;;;4.80;;
66402;SDS011;53212;52.112;5.144;2023-08-06T02:01:15;5.00;;;4.60;;
66402;SDS011;53212;52.112;5.144;2023-08-06T02:03:40;5.60;;;5.10;;
66402;SDS011;53212;52.112;5.144;2023-08-06T02:06:06;5.00;;;4.50;;
66402;SDS011;53212;52.112;5.144;2023-08-06T02:08:31;5.30;;;4.70;;
66402;SDS011;53212;52.112;5.144;2023-08-06T02:10:57;5.50;;;5.00;;
66402;SDS011;53212;52.112;5.144;2023-08-06T02:13:23;7.30;;;5.00;;
66402;SDS011;53212;52.112;5.144;2023-08-06T02:15:49;5.60;;;5.10;;
66402;SDS011;53212;52.112;5.144;2023-08-06T02:18:15;5.10;;;4.70;;
66402;SDS011;53212;52.112;5.144;2023-08-06T02:20:41;7.90;;;4.70;;
66402;SDS011;53212;52.112;5.144;2023-08-06T02:23:07;5.70;;;5.00;;
66402;SDS011;53212;52.112;5.144;2023-08-06T02:25:33;8.10;;;5.00;;
66402;SDS011;53212;52.112;5.144;2023-08-06T02:27:58;7.80;;;4.90;;
66402;SDS011;53212;52.112;5.144;2023-08-06T02:30:24;5.60;;;5.10;;
66402;SDS011;53212;52.112;5.144;2023-08-06T02:32:49;6.10;;;5.00;;
66402;SDS011;53212;52.112;5.144;2023-08-06T02:35:14;5.40;;;5.00;;
66402;SDS011;53212;52.112;5.144;2023-08-06T02:37:40;6.50;;;5.10;;
66402;SDS011;53212;52.112;5.144;2023-08-06T02:40:06;5.30;;;4.90;;
66402;SDS011;53212;52.112;5.144;2023-08-06T02:42:32;5.70;;;5.30;;
66402;SDS011;53212;52.112;5.144;2023-08-06T02:44:57;6.70;;;5.70;;
66402;SDS011;53212;52.112;5.144;2023-08-06T02:47:23;6.80;;;5.30;;
66402;SDS011;53212;52.112;5.144;2023-08-06T02:49:48;5.70;;;5.00;;
66402;SDS011;53212;52.112;5.144;2023-08-06T02:52:14;6.20;;;5.60;;
66402;SDS011;53212;52.112;5.144;2023-08-06T02:54:39;6.40;;;5.50;;
66402;SDS011;53212;52.112;5.144;2023-08-06T02:57:05;6.30;;;5.70;;
66402;SDS011;53212;52.112;5.144;2023-08-06T02:59:31;6.20;;;5.60;;
66402;SDS011;53212;52.112;5.144;2023-08-06T03:01:57;6.40;;;5.80;;
66402;SDS011;53212;52.112;5.144;2023-08-06T03:04:23;7.10;;;6.00;;
66402;SDS011;53212;52.112;5.144;2023-08-06T03:06:51;6.40;;;5.90;;
66402;SDS011;53212;52.112;5.144;2023-08-06T03:09:17;6.30;;;5.60;;
66402;SDS011;53212;52.112;5.144;2023-08-06T03:11:43;7.40;;;5.80;;
66402;SDS011;53212;52.112;5.144;2023-08-06T03:14:09;6.50;;;5.90;;
66402;SDS011;53212;52.112;5.144;2023-08-06T03:16:34;6.10;;;5.50;;
66402;SDS011;53212;52.112;5.144;2023-08-06T03:19:00;6.20;;;5.70;;
66402;SDS011;53212;52.112;5.144;2023-08-06T03:21:26;5.60;;;5.10;;
66402;SDS011;53212;52.112;5.144;2023-08-06T03:23:51;6.80;;;6.00;;
66402;SDS011;53212;52.112;5.144;2023-08-06T03:26:17;7.00;;;6.20;;
66402;SDS011;53212;52.112;5.144;2023-08-06T03:28:42;7.00;;;6.10;;
66402;SDS011;53212;52.112;5.144;2023-08-06T03:31:08;6.70;;;6.10;;
66402;SDS011;53212;52.112;5.144;2023-08-06T03:33:34;7.50;;;6.80;;
66402;SDS011;53212;52.112;5.144;2023-08-06T03:35:59;6.50;;;6.00;;
66402;SDS011;53212;52.112;5.144;2023-08-06T03:38:25;6.80;;;6.30;;
66402;SDS011;53212;52.112;5.144;2023-08-06T03:40:50;7.30;;;6.70;;
66402;SDS011;53212;52.112;5.144;2023-08-06T03:43:16;7.30;;;6.70;;
66402;SDS011;53212;52.112;5.144;2023-08-06T03:45:42;7.20;;;6.60;;
66402;SDS011;53212;52.112;5.144;2023-08-06T03:48:08;6.70;;;6.10;;
66402;SDS011;53212;52.112;5.144;2023-08-06T03:50:33;6.90;;;6.30;;
66402;SDS011;53212;52.112;5.144;2023-08-06T03:52:59;6.30;;;5.80;;
66402;SDS011;53212;52.112;5.144;2023-08-06T03:55:25;6.30;;;5.80;;
66402;SDS011;53212;52.112;5.144;2023-08-06T03:57:50;7.10;;;6.50;;
66402;SDS011;53212;52.112;5.144;2023-08-06T04:00:16;7.40;;;6.70;;
66402;SDS011;53212;52.112;5.144;2023-08-06T04:02:42;7.80;;;7.10;;
66402;SDS011;53212;52.112;5.144;2023-08-06T04:05:07;7.90;;;7.20;;
66402;SDS011;53212;52.112;5.144;2023-08-06T04:07:33;8.30;;;7.50;;
66402;SDS011;53212;52.112;5.144;2023-08-06T04:10:00;8.00;;;7.20;;
66402;SDS011;53212;52.112;5.144;2023-08-06T04:12:28;8.50;;;7.80;;
66402;SDS011;53212;52.112;5.144;2023-08-06T04:14:54;8.50;;;7.80;;
66402;SDS011;53212;52.112;5.144;2023-08-06T04:17:20;7.90;;;7.30;;
66402;SDS011;53212;52.112;5.144;2023-08-06T04:19:55;8.50;;;7.70;;
66402;SDS011;53212;52.112;5.144;2023-08-06T04:22:24;8.80;;;8.10;;
66402;SDS011;53212;52.112;5.144;2023-08-06T04:24:50;8.70;;;7.90;;
66402;SDS011;53212;52.112;5.144;2023-08-06T04:27:16;8.30;;;7.60;;
66402;SDS011;53212;52.112;5.144;2023-08-06T04:29:42;9.40;;;8.40;;
66402;SDS011;53212;52.112;5.144;2023-08-06T04:32:09;8.50;;;7.90;;
66402;SDS011;53212;52.112;5.144;2023-08-06T04:34:35;8.90;;;8.00;;
66402;SDS011;53212;52.112;5.144;2023-08-06T04:37:02;8.60;;;7.90;;
66402;SDS011;53212;52.112;5.144;2023-08-06T04:39:28;8.40;;;7.70;;
66402;SDS011;53212;52.112;5.144;2023-08-06T04:41:57;8.40;;;7.80;;
66402;SDS011;53212;52.112;5.144;2023-08-06T04:44:23;7.30;;;6.70;;
66402;SDS011;53212;52.112;5.144;2023-08-06T04:46:48;8.70;;;8.00;;
66402;SDS011;53212;52.112;5.144;2023-08-06T04:49:14;7.70;;;7.10;;
66402;SDS011;53212;52.112;5.144;2023-08-06T04:51:39;8.50;;;7.90;;
66402;SDS011;53212;52.112;5.144;2023-08-06T04:54:05;8.90;;;8.10;;
66402;SDS011;53212;52.112;5.144;2023-08-06T04:56:30;8.80;;;8.00;;
66402;SDS011;53212;52.112;5.144;2023-08-06T04:58:57;9.10;;;8.30;;
66402;SDS011;53212;52.112;5.144;2023-08-06T05:01:23;8.60;;;7.90;;
66402;SDS011;53212;52.112;5.144;2023-08-06T05:03:49;9.20;;;8.40;;
66402;SDS011;53212;52.112;5.144;2023-08-06T05:06:14;8.70;;;8.00;;
66402;SDS011;53212;52.112;5.144;2023-08-06T05:08:40;8.60;;;7.90;;
66402;SDS011;53212;52.112;5.144;2023-08-06T05:11:05;9.20;;;8.00;;
66402;SDS011;53212;52.112;5.144;2023-08-06T05:13:30;8.80;;;8.00;;
66402;SDS011;53212;52.112;5.144;2023-08-06T05:15:56;10.10;;;8.50;;
66402;SDS011;53212;52.112;5.144;2023-08-06T05:18:21;9.10;;;8.40;;
66402;SDS011;53212;52.112;5.144;2023-08-06T05:20:47;8.80;;;7.90;;
66402;SDS011;53212;52.112;5.144;2023-08-06T05:23:13;8.70;;;7.90;;
66402;SDS011;53212;52.112;5.144;2023-08-06T05:25:38;9.40;;;8.50;;
66402;SDS011;53212;52.112;5.144;2023-08-06T05:28:04;9.10;;;8.30;;
66402;SDS011;53212;52.112;5.144;2023-08-06T05:30:29;9.00;;;8.30;;
66402;SDS011;53212;52.112;5.144;2023-08-06T05:32:55;9.60;;;8.70;;
66402;SDS011;53212;52.112;5.144;2023-08-06T05:35:21;9.80;;;9.00;;
66402;SDS011;53212;52.112;5.144;2023-08-06T05:37:47;10.30;;;9.20;;
66402;SDS011;53212;52.112;5.144;2023-08-06T05:40:13;9.90;;;9.00;;
66402;SDS011;53212;52.112;5.144;2023-08-06T05:42:39;9.20;;;8.40;;
66402;SDS011;53212;52.112;5.144;2023-08-06T05:45:06;8.60;;;7.90;;
66402;SDS011;53212;52.112;5.144;2023-08-06T05:47:32;8.50;;;7.80;;
66402;SDS011;53212;52.112;5.144;2023-08-06T05:49:57;6.10;;;5.70;;
66402;SDS011;53212;52.112;5.144;2023-08-06T05:52:23;3.80;;;3.50;;
66402;SDS011;53212;52.112;5.144;2023-08-06T05:54:48;3.60;;;3.40;;
66402;SDS011;53212;52.112;5.144;2023-08-06T05:57:14;2.90;;;2.40;;
66402;SDS011;53212;52.112;5.144;2023-08-06T05:59:40;1.90;;;1.80;;
66402;SDS011;53212;52.112;5.144;2023-08-06T06:02:06;1.70;;;1.60;;
66402;SDS011;53212;52.112;5.144;2023-08-06T06:04:31;1.60;;;1.50;;
66402;SDS011;53212;52.112;5.144;2023-08-06T06:06:57;1.70;;;1.60;;
66402;SDS011;53212;52.112;5.144;2023-08-06T06:09:22;2.90;;;2.20;;
66402;SDS011;53212;52.112;5.144;2023-08-06T06:11:48;2.20;;;2.10;;
66402;SDS011;53212;52.112;5.144;2023-08-06T06:14:16;2.50;;;2.30;;
66402;SDS011;53212;52.112;5.144;2023-08-06T06:16:42;2.20;;;2.00;;
66402;SDS011;53212;52.112;5.144;2023-08-06T06:19:07;1.80;;;1.60;;
66402;SDS011;53212;52.112;5.144;2023-08-06T06:21:32;1.80;;;1.70;;
66402;SDS011;53212;52.112;5.144;2023-08-06T06:23:58;1.80;;;1.70;;
66402;SDS011;53212;52.112;5.144;2023-08-06T06:26:23;1.70;;;1.60;;
66402;SDS011;53212;52.112;5.144;2023-08-06T06:28:49;2.00;;;1.90;;
66402;SDS011;53212;52.112;5.144;2023-08-06T06:31:14;2.00;;;1.90;;
66402;SDS011;53212;52.112;5.144;2023-08-06T06:33:40;2.30;;;2.20;;
66402;SDS011;53212;52.112;5.144;2023-08-06T06:36:05;2.20;;;2.10;;
66402;SDS011;53212;52.112;5.144;2023-08-06T06:38:33;2.10;;;2.00;;
66402;SDS011;53212;52.112;5.144;2023-08-06T06:40:59;2.20;;;2.10;;
66402;SDS011;53212;52.112;5.144;2023-08-06T06:43:25;2.30;;;2.10;;
66402;SDS011;53212;52.112;5.144;2023-08-06T06:46:00;2.10;;;2.00;;
66402;SDS011;53212;52.112;5.144;2023-08-06T06:48:27;2.60;;;2.20;;
66402;SDS011;53212;52.112;5.144;2023-08-06T06:50:54;2.20;;;2.10;;
66402;SDS011;53212;52.112;5.144;2023-08-06T06:53:20;2.70;;;2.50;;
66402;SDS011;53212;52.112;5.144;2023-08-06T06:55:46;2.50;;;2.40;;
66402;SDS011;53212;52.112;5.144;2023-08-06T06:58:15;2.30;;;2.10;;
66402;SDS011;53212;52.112;5.144;2023-08-06T07:00:41;2.60;;;2.40;;
66402;SDS011;53212;52.112;5.144;2023-08-06T07:03:06;2.40;;;2.30;;
66402;SDS011;53212;52.112;5.144;2023-08-06T07:05:32;3.00;;;2.80;;
66402;SDS011;53212;52.112;5.144;2023-08-06T07:07:58;3.10;;;2.90;;
66402;SDS011;53212;52.112;5.144;2023-08-06T07:10:23;2.80;;;2.60;;
66402;SDS011;53212;52.112;5.144;2023-08-06T07:12:49;3.20;;;2.90;;
66402;SDS011;53212;52.112;5.144;2023-08-06T07:15:14;3.00;;;2.80;;
66402;SDS011;53212;52.112;5.144;2023-08-06T07:17:40;2.70;;;2.50;;
66402;SDS011;53212;52.112;5.144;2023-08-06T07:20:07;2.70;;;2.50;;
66402;SDS011;53212;52.112;5.144;2023-08-06T07:22:33;3.00;;;2.70;;
66402;SDS011;53212;52.112;5.144;2023-08-06T07:24:58;2.60;;;2.40;;
66402;SDS011;53212;52.112;5.144;2023-08-06T07:27:24;2.30;;;2.10;;
66402;SDS011;53212;52.112;5.144;2023-08-06T07:29:50;2.40;;;2.20;;
66402;SDS011;53212;52.112;5.144;2023-08-06T07:32:15;2.30;;;2.10;;
66402;SDS011;53212;52.112;5.144;2023-08-06T07:34:41;1.90;;;1.70;;
66402;SDS011;53212;52.112;5.144;2023-08-06T07:37:06;2.00;;;1.80;;
66402;SDS011;53212;52.112;5.144;2023-08-06T07:39:32;3.00;;;2.20;;
66402;SDS011;53212;52.112;5.144;2023-08-06T07:41:57;2.90;;;2.10;;
66402;SDS011;53212;52.112;5.144;2023-08-06T07:44:23;3.40;;;2.40;;
66402;SDS011;53212;52.112;5.144;2023-08-06T07:46:49;2.50;;;2.10;;
66402;SDS011;53212;52.112;5.144;2023-08-06T07:49:15;2.00;;;1.80;;
66402;SDS011;53212;52.112;5.144;2023-08-06T07:51:40;3.50;;;2.40;;
66402;SDS011;53212;52.112;5.144;2023-08-06T07:54:06;2.80;;;2.60;;
66402;SDS011;53212;52.112;5.144;2023-08-06T07:56:32;2.30;;;2.10;;
66402;SDS011;53212;52.112;5.144;2023-08-06T07:58:58;4.40;;;2.50;;
66402;SDS011;53212;52.112;5.144;2023-08-06T08:01:23;2.30;;;2.10;;
66402;SDS011;53212;52.112;5.144;2023-08-06T08:03:48;2.70;;;2.40;;
66402;SDS011;53212;52.112;5.144;2023-08-06T08:06:14;2.50;;;2.40;;
66402;SDS011;53212;52.112;5.144;2023-08-06T08:08:39;2.70;;;2.40;;
66402;SDS011;53212;52.112;5.144;2023-08-06T08:11:05;2.90;;;2.60;;
66402;SDS011;53212;52.112;5.144;2023-08-06T08:13:31;2.60;;;2.40;;
66402;SDS011;53212;52.112;5.144;2023-08-06T08:16:00;3.40;;;2.60;;
66402;SDS011;53212;52.112;5.144;2023-08-06T08:18:26;3.20;;;2.90;;
66402;SDS011;53212;52.112;5.144;2023-08-06T08:20:52;2.80;;;2.50;;
66402;SDS011;53212;52.112;5.144;2023-08-06T08:23:17;3.50;;;2.80;;
66402;SDS011;53212;52.112;5.144;2023-08-06T08:25:43;3.00;;;2.70;;
66402;SDS011;53212;52.112;5.144;2023-08-06T08:28:08;6.00;;;3.10;;
66402;SDS011;53212;52.112;5.144;2023-08-06T08:30:34;3.50;;;3.10;;
66402;SDS011;53212;52.112;5.144;2023-08-06T08:32:59;3.60;;;3.30;;
66402;SDS011;53212;52.112;5.144;2023-08-06T08:35:25;3.00;;;2.80;;
66402;SDS011;53212;52.112;5.144;2023-08-06T08:37:50;4.50;;;3.00;;
66402;SDS011;53212;52.112;5.144;2023-08-06T08:40:17;3.80;;;3.50;;
66402;SDS011;53212;52.112;5.144;2023-08-06T08:42:43;4.00;;;3.70;;
66402;SDS011;53212;52.112;5.144;2023-08-06T08:45:14;4.00;;;3.20;;
66402;SDS011;53212;52.112;5.144;2023-08-06T08:47:41;5.70;;;3.80;;
66402;SDS011;53212;52.112;5.144;2023-08-06T08:50:08;4.30;;;3.60;;
66402;SDS011;53212;52.112;5.144;2023-08-06T08:52:35;4.80;;;4.00;;
66402;SDS011;53212;52.112;5.144;2023-08-06T08:55:02;3.70;;;3.40;;
66402;SDS011;53212;52.112;5.144;2023-08-06T08:57:27;4.90;;;3.60;;
66402;SDS011;53212;52.112;5.144;2023-08-06T08:59:53;5.00;;;3.40;;
66402;SDS011;53212;52.112;5.144;2023-08-06T09:02:18;3.50;;;3.20;;
66402;SDS011;53212;52.112;5.144;2023-08-06T09:04:47;6.30;;;3.80;;
66402;SDS011;53212;52.112;5.144;2023-08-06T09:07:16;4.30;;;3.30;;
66402;SDS011;53212;52.112;5.144;2023-08-06T09:09:44;3.60;;;3.30;;
66402;SDS011;53212;52.112;5.144;2023-08-06T09:12:16;4.20;;;3.80;;
66402;SDS011;53212;52.112;5.144;2023-08-06T09:14:42;3.70;;;3.10;;
66402;SDS011;53212;52.112;5.144;2023-08-06T09:17:09;4.40;;;3.40;;
66402;SDS011;53212;52.112;5.144;2023-08-06T09:19:39;5.80;;;3.50;;
66402;SDS011;53212;52.112;5.144;2023-08-06T09:22:11;3.40;;;3.10;;
66402;SDS011;53212;52.112;5.144;2023-08-06T09:24:39;4.20;;;3.50;;
66402;SDS011;53212;52.112;5.144;2023-08-06T09:27:13;6.00;;;3.10;;
66402;SDS011;53212;52.112;5.144;2023-08-06T09:29:45;3.30;;;3.00;;
66402;SDS011;53212;52.112;5.144;2023-08-06T09:32:14;4.50;;;3.30;;
66402;SDS011;53212;52.112;5.144;2023-08-06T09:34:42;5.40;;;3.30;;
66402;SDS011;53212;52.112;5.144;2023-08-06T09:37:09;3.80;;;3.00;;
66402;SDS011;53212;52.112;5.144;2023-08-06T09:39:39;2.90;;;2.60;;
66402;SDS011;53212;52.112;5.144;2023-08-06T09:42:06;3.90;;;3.00;;
66402;SDS011;53212;52.112;5.144;2023-08-06T09:44:32;2.80;;;2.50;;
66402;SDS011;53212;52.112;5.144;2023-08-06T09:47:01;4.00;;;3.10;;
66402;SDS011;53212;52.112;5.144;2023-08-06T09:51:57;4.10;;;3.10;;
66402;SDS011;53212;52.112;5.144;2023-08-06T09:54:24;3.40;;;2.70;;
66402;SDS011;53212;52.112;5.144;2023-08-06T09:56:56;4.90;;;2.80;;
66402;SDS011;53212;52.112;5.144;2023-08-06T09:59:25;3.30;;;2.50;;
66402;SDS011;53212;52.112;5.144;2023-08-06T10:01:51;3.60;;;2.80;;
66402;SDS011;53212;52.112;5.144;2023-08-06T10:04:19;3.60;;;2.80;;
66402;SDS011;53212;52.112;5.144;2023-08-06T10:06:48;3.80;;;2.70;;
66402;SDS011;53212;52.112;5.144;2023-08-06T10:09:14;3.00;;;2.20;;
66402;SDS011;53212;52.112;5.144;2023-08-06T10:11:39;3.00;;;2.60;;
66402;SDS011;53212;52.112;5.144;2023-08-06T10:14:13;4.30;;;2.60;;
66402;SDS011;53212;52.112;5.144;2023-08-06T10:16:45;2.80;;;2.60;;
66402;SDS011;53212;52.112;5.144;2023-08-06T10:19:12;3.50;;;2.50;;
66402;SDS011;53212;52.112;5.144;2023-08-06T10:21:39;3.20;;;2.60;;
66402;SDS011;53212;52.112;5.144;2023-08-06T10:24:07;6.00;;;2.40;;
66402;SDS011;53212;52.112;5.144;2023-08-06T10:26:36;3.30;;;2.40;;
66402;SDS011;53212;52.112;5.144;2023-08-06T10:29:34;3.00;;;2.70;;
66402;SDS011;53212;52.112;5.144;2023-08-06T10:32:01;4.00;;;2.90;;
66402;SDS011;53212;52.112;5.144;2023-08-06T10:34:56;4.60;;;2.80;;
66402;SDS011;53212;52.112;5.144;2023-08-06T10:37:23;4.40;;;2.80;;
66402;SDS011;53212;52.112;5.144;2023-08-06T10:39:51;4.10;;;3.00;;
66402;SDS011;53212;52.112;5.144;2023-08-06T10:42:21;2.90;;;2.60;;
66402;SDS011;53212;52.112;5.144;2023-08-06T10:45:18;3.20;;;2.40;;
66402;SDS011;53212;52.112;5.144;2023-08-06T10:47:45;2.90;;;2.10;;
66402;SDS011;53212;52.112;5.144;2023-08-06T10:50:15;3.00;;;2.30;;
66402;SDS011;53212;52.112;5.144;2023-08-06T10:52:46;4.30;;;2.20;;
66402;SDS011;53212;52.112;5.144;2023-08-06T10:55:13;4.10;;;2.10;;
66402;SDS011;53212;52.112;5.144;2023-08-06T10:57:39;2.10;;;1.90;;
66402;SDS011;53212;52.112;5.144;2023-08-06T11:00:06;3.60;;;2.00;;
66402;SDS011;53212;52.112;5.144;2023-08-06T11:02:36;2.80;;;1.80;;
66402;SDS011;53212;52.112;5.144;2023-08-06T11:05:08;2.50;;;1.70;;
66402;SDS011;53212;52.112;5.144;2023-08-06T11:07:35;2.30;;;1.90;;
66402;SDS011;53212;52.112;5.144;2023-08-06T11:10:03;2.00;;;1.60;;
66402;SDS011;53212;52.112;5.144;2023-08-06T11:12:31;1.40;;;1.20;;
66402;SDS011;53212;52.112;5.144;2023-08-06T11:14:57;2.40;;;1.30;;
66402;SDS011;53212;52.112;5.144;2023-08-06T11:17:23;3.20;;;1.40;;
66402;SDS011;53212;52.112;5.144;2023-08-06T11:19:49;2.60;;;1.40;;
66402;SDS011;53212;52.112;5.144;2023-08-06T11:22:15;1.90;;;1.30;;
66402;SDS011;53212;52.112;5.144;2023-08-06T11:24:41;2.30;;;1.30;;
66402;SDS011;53212;52.112;5.144;2023-08-06T11:27:16;1.80;;;1.20;;
66402;SDS011;53212;52.112;5.144;2023-08-06T11:29:43;1.20;;;1.10;;
66402;SDS011;53212;52.112;5.144;2023-08-06T11:32:10;4.10;;;1.10;;
66402;SDS011;53212;52.112;5.144;2023-08-06T11:34:36;2.70;;;1.20;;
66402;SDS011;53212;52.112;5.144;2023-08-06T11:37:03;2.40;;;1.60;;
66402;SDS011;53212;52.112;5.144;2023-08-06T11:39:33;3.30;;;1.50;;
66402;SDS011;53212;52.112;5.144;2023-08-06T11:41:59;2.30;;;1.50;;
66402;SDS011;53212;52.112;5.144;2023-08-06T11:44:32;3.30;;;1.50;;
66402;SDS011;53212;52.112;5.144;2023-08-06T11:47:02;5.10;;;1.70;;
66402;SDS011;53212;52.112;5.144;2023-08-06T11:49:48;4.60;;;1.50;;
66402;SDS011;53212;52.112;5.144;2023-08-06T11:52:22;2.00;;;1.40;;
66402;SDS011;53212;52.112;5.144;2023-08-06T11:55:08;2.30;;;1.50;;
66402;SDS011;53212;52.112;5.144;2023-08-06T11:57:37;2.50;;;1.60;;
66402;SDS011;53212;52.112;5.144;2023-08-06T12:00:09;2.00;;;1.40;;
66402;SDS011;53212;52.112;5.144;2023-08-06T12:02:41;3.00;;;1.60;;
66402;SDS011;53212;52.112;5.144;2023-08-06T12:05:15;2.00;;;1.10;;
66402;SDS011;53212;52.112;5.144;2023-08-06T12:07:50;2.20;;;1.40;;
66402;SDS011;53212;52.112;5.144;2023-08-06T12:10:17;2.80;;;1.60;;
66402;SDS011;53212;52.112;5.144;2023-08-06T12:12:47;1.60;;;1.30;;
66402;SDS011;53212;52.112;5.144;2023-08-06T12:15:13;1.20;;;1.00;;
66402;SDS011;53212;52.112;5.144;2023-08-06T12:17:39;3.00;;;1.40;;
66402;SDS011;53212;52.112;5.144;2023-08-06T12:20:06;1.70;;;1.20;;
66402;SDS011;53212;52.112;5.144;2023-08-06T12:22:36;2.60;;;1.20;;
66402;SDS011;53212;52.112;5.144;2023-08-06T12:25:05;2.20;;;1.60;;
66402;SDS011;53212;52.112;5.144;2023-08-06T12:27:37;3.10;;;1.20;;
66402;SDS011;53212;52.112;5.144;2023-08-06T12:30:05;3.30;;;1.40;;
66402;SDS011;53212;52.112;5.144;2023-08-06T12:32:31;2.00;;;1.30;;
66402;SDS011;53212;52.112;5.144;2023-08-06T12:34:57;1.20;;;1.00;;
66402;SDS011;53212;52.112;5.144;2023-08-06T12:37:24;1.20;;;0.90;;
66402;SDS011;53212;52.112;5.144;2023-08-06T12:39:50;4.40;;;1.60;;
66402;SDS011;53212;52.112;5.144;2023-08-06T12:42:16;1.40;;;1.00;;
66402;SDS011;53212;52.112;5.144;2023-08-06T12:44:41;2.80;;;1.20;;
66402;SDS011;53212;52.112;5.144;2023-08-06T12:47:07;3.40;;;1.10;;
66402;SDS011;53212;52.112;5.144;2023-08-06T12:49:33;1.10;;;1.00;;
66402;SDS011;53212;52.112;5.144;2023-08-06T12:51:58;2.30;;;1.00;;
66402;SDS011;53212;52.112;5.144;2023-08-06T12:54:27;3.20;;;1.30;;
66402;SDS011;53212;52.112;5.144;2023-08-06T12:56:53;2.50;;;1.30;;
66402;SDS011;53212;52.112;5.144;2023-08-06T12:59:19;1.70;;;1.10;;
66402;SDS011;53212;52.112;5.144;2023-08-06T13:01:45;2.30;;;1.30;;
66402;SDS011;53212;52.112;5.144;2023-08-06T13:04:11;2.60;;;1.30;;
66402;SDS011;53212;52.112;5.144;2023-08-06T13:06:37;2.40;;;0.90;;
66402;SDS011;53212;52.112;5.144;2023-08-06T13:09:07;2.30;;;1.00;;
66402;SDS011;53212;52.112;5.144;2023-08-06T13:11:36;3.00;;;0.90;;
66402;SDS011;53212;52.112;5.144;2023-08-06T13:14:10;1.40;;;1.10;;
66402;SDS011;53212;52.112;5.144;2023-08-06T13:16:37;1.10;;;1.00;;
66402;SDS011;53212;52.112;5.144;2023-08-06T13:19:05;1.30;;;1.20;;
66402;SDS011;53212;52.112;5.144;2023-08-06T13:21:33;3.80;;;1.60;;
66402;SDS011;53212;52.112;5.144;2023-08-06T13:24:19;1.90;;;1.30;;
66402;SDS011;53212;52.112;5.144;2023-08-06T13:26:44;2.50;;;1.50;;
66402;SDS011;53212;52.112;5.144;2023-08-06T13:29:10;1.50;;;1.30;;
66402;SDS011;53212;52.112;5.144;2023-08-06T13:31:37;2.40;;;1.40;;
66402;SDS011;53212;52.112;5.144;2023-08-06T13:34:03;4.50;;;1.60;;
66402;SDS011;53212;52.112;5.144;2023-08-06T13:36:29;1.50;;;1.40;;
66402;SDS011;53212;52.112;5.144;2023-08-06T13:38:54;1.70;;;1.60;;
66402;SDS011;53212;52.112;5.144;2023-08-06T13:41:21;2.20;;;1.40;;
66402;SDS011;53212;52.112;5.144;2023-08-06T13:43:46;2.20;;;1.50;;
66402;SDS011;53212;52.112;5.144;2023-08-06T13:46:12;2.10;;;1.80;;
66402;SDS011;53212;52.112;5.144;2023-08-06T13:48:42;2.60;;;1.40;;
66402;SDS011;53212;52.112;5.144;2023-08-06T13:51:08;1.50;;;1.30;;
66402;SDS011;53212;52.112;5.144;2023-08-06T13:53:34;1.50;;;1.40;;
66402;SDS011;53212;52.112;5.144;2023-08-06T13:55:59;1.40;;;1.30;;
66402;SDS011;53212;52.112;5.144;2023-08-06T13:58:25;2.20;;;1.40;;
66402;SDS011;53212;52.112;5.144;2023-08-06T14:00:51;1.40;;;1.30;;
66402;SDS011;53212;52.112;5.144;2023-08-06T14:03:18;1.90;;;1.30;;
66402;SDS011;53212;52.112;5.144;2023-08-06T14:05:44;2.20;;;1.30;;
66402;SDS011;53212;52.112;5.144;2023-08-06T14:08:09;1.60;;;1.50;;
66402;SDS011;53212;52.112;5.144;2023-08-06T14:10:35;2.90;;;1.40;;
66402;SDS011;53212;52.112;5.144;2023-08-06T14:13:00;4.50;;;1.70;;
66402;SDS011;53212;52.112;5.144;2023-08-06T14:15:26;1.70;;;1.40;;
66402;SDS011;53212;52.112;5.144;2023-08-06T14:17:51;1.50;;;1.40;;
66402;SDS011;53212;52.112;5.144;2023-08-06T14:20:17;1.70;;;1.40;;
66402;SDS011;53212;52.112;5.144;2023-08-06T14:22:42;1.90;;;1.20;;
66402;SDS011;53212;52.112;5.144;2023-08-06T14:25:08;1.50;;;1.00;;
66402;SDS011;53212;52.112;5.144;2023-08-06T14:27:33;1.80;;;1.30;;
66402;SDS011;53212;52.112;5.144;2023-08-06T14:30:00;1.60;;;1.20;;
66402;SDS011;53212;52.112;5.144;2023-08-06T14:32:25;1.80;;;1.30;;
66402;SDS011;53212;52.112;5.144;2023-08-06T14:34:51;1.50;;;1.20;;
66402;SDS011;53212;52.112;5.144;2023-08-06T14:37:17;2.70;;;1.60;;
66402;SDS011;53212;52.112;5.144;2023-08-06T14:39:42;4.10;;;1.30;;
66402;SDS011;53212;52.112;5.144;2023-08-06T14:42:08;2.60;;;1.40;;
66402;SDS011;53212;52.112;5.144;2023-08-06T14:44:33;2.60;;;1.10;;
66402;SDS011;53212;52.112;5.144;2023-08-06T14:46:59;4.80;;;1.10;;
66402;SDS011;53212;52.112;5.144;2023-08-06T14:49:24;5.50;;;1.20;;
66402;SDS011;53212;52.112;5.144;2023-08-06T14:51:50;3.30;;;1.20;;